M70 weather

Pocahontas Municipal Airport
Pocahontas, Arkansas, United States

Public forecast

Using degrees Fahrenheit for public forecast. Weather courtesy of forecast.io.

Closest aviation weather report (METAR) to Pocahontas Municipal Airport

Closest report is Walnut Ridge Regional Airport, 7.4 nm (13.7 km) SSE. Retrieved 2020/07/16 11:56 UTC (20 minutes ago):

KARG 161156Z AUTO 36006KT 10SM CLR 26/24 A3001 RMK AO2 SLP161 6//// 7//// T02560239 10283 20250 53020 PNO

Closest aviation forecast (TAF) to Pocahontas Municipal Airport

Closest forecast is Jonesboro Municipal Airport, 29.0 nm (53.7 km) SSE. Retrieved 2020/07/16 12:42 UTC (0 seconds ago):

TAF KJBR 161141Z 1612/1712 25007KT P6SM FEW030 SCT250 FM161700 VRB05KT P6SM VCTS BKN050CB FM170000 VRB03KT P6SM SCT050 BKN080 AMD NOT SKED